Terminal Aerodrome Forecast
Issued by NWS Brownsville, TX

Home | Current Version | Previous Version | Text Only | Print | Product List | Glossary On
Versions: 1 2 3 4 5 6 7 8 9 10 11 12 13 14
000
FTUS44 KBRO 222336
TAFBRO
TAF
KBRO 222336Z 2300/2324 16018G24KT P6SM SKC
     FM230400 15014G21KT P6SM SKC
     FM231000 15011KT P6SM FEW025
     FM231500 16020G25KT P6SM SCT040
     FM231800 16022G28KT P6SM FEW045=

USA.gov is the U.S. government's official web portal to all federal, state and local government web resources and services.